createdAt,value
2022-12-11T00:01:02.708Z,1036.1
2022-12-11T00:02:46.102Z,1037.2
2022-12-11T00:04:29.493Z,1035.6
2022-12-11T00:06:12.880Z,1034.7
2022-12-11T00:07:56.289Z,1037
2022-12-11T00:09:39.971Z,1036.1
2022-12-11T00:11:23.074Z,1033
2022-12-11T00:16:32.308Z,1027.8
2022-12-11T00:18:15.719Z,1025
2022-12-11T00:19:59.117Z,1026.4
2022-12-11T00:21:42.524Z,1026.6
2022-12-11T00:23:26.096Z,1028.1
2022-12-11T00:25:09.333Z,1029
2022-12-11T00:26:52.699Z,1026.4
2022-12-11T00:28:36.081Z,1027.2
2022-12-11T00:32:02.563Z,1028.4
2022-12-11T00:33:45.946Z,1029
2022-12-11T00:35:44.490Z,1030.5
2022-12-11T00:37:12.749Z,1029.3
2022-12-11T00:38:56.151Z,1032.1
2022-12-11T00:40:39.539Z,1030
2022-12-11T00:42:22.946Z,1026.6
2022-12-11T00:44:06.408Z,1024.3
2022-12-11T00:49:15.568Z,1013.4
2022-12-11T00:50:58.968Z,1012.4
2022-12-11T00:52:42.378Z,1015.1
2022-12-11T00:54:25.763Z,1016.1
2022-12-11T00:56:09.462Z,1016.6
2022-12-11T00:57:52.553Z,1013.2
2022-12-11T00:59:35.944Z,1010.1
2022-12-11T01:01:19.351Z,1004
2022-12-11T01:06:28.584Z,997.6
2022-12-11T01:08:11.974Z,997.5
2022-12-11T01:09:55.469Z,997.4
2022-12-11T01:11:38.771Z,996.7
2022-12-11T01:13:22.244Z,998.4
2022-12-11T01:15:05.596Z,999
2022-12-11T01:16:48.962Z,994
2022-12-11T01:18:32.367Z,992.1
2022-12-11T01:21:58.931Z,997.9
2022-12-11T01:23:42.229Z,995.2
2022-12-11T01:25:25.637Z,993.2
2022-12-11T01:27:09.077Z,995.7
2022-12-11T01:28:52.455Z,992.2
2022-12-11T01:30:35.816Z,989.7
2022-12-11T01:32:19.204Z,986
2022-12-11T01:34:02.637Z,981.8
2022-12-11T01:35:46.009Z,983
2022-12-11T01:39:12.480Z,983.7
2022-12-11T01:40:55.872Z,984.8
2022-12-11T01:42:39.263Z,980.7
2022-12-11T01:44:22.662Z,978.2
2022-12-11T01:46:06.071Z,979.4
2022-12-11T01:47:49.460Z,976.4
2022-12-11T01:49:32.855Z,973.6
2022-12-11T01:51:16.251Z,973.5
2022-12-11T01:56:25.493Z,970.1
2022-12-11T01:58:08.889Z,969
2022-12-11T01:59:52.287Z,966.2
2022-12-11T02:01:35.665Z,966.5
2022-12-11T02:03:19.075Z,965.5
2022-12-11T02:05:02.465Z,964.2
2022-12-11T02:06:45.871Z,966.2
2022-12-11T02:08:29.267Z,966.4
2022-12-11T02:13:38.502Z,963.5
2022-12-11T02:15:21.906Z,964.4
2022-12-11T02:17:05.287Z,964.3
2022-12-11T02:18:48.695Z,964.5
2022-12-11T02:20:32.082Z,967.4
2022-12-11T02:22:15.488Z,965.6
2022-12-11T02:23:58.888Z,965.8
2022-12-11T02:25:42.275Z,964.2
2022-12-11T02:30:51.506Z,963.8
2022-12-11T02:32:34.924Z,961.3
2022-12-11T02:34:18.307Z,956.8
2022-12-11T02:36:01.698Z,953.5
2022-12-11T02:37:45.103Z,954.5
2022-12-11T02:39:28.491Z,957.4
2022-12-11T02:41:11.893Z,958
2022-12-11T02:42:55.283Z,959.4
2022-12-11T02:44:38.695Z,958.6
2022-12-11T02:48:05.174Z,957.5
2022-12-11T02:49:48.566Z,955.6
2022-12-11T02:51:31.969Z,954
2022-12-11T02:53:15.351Z,958.3
2022-12-11T02:54:58.751Z,957.2
2022-12-11T02:56:42.125Z,956.6
2022-12-11T02:58:25.534Z,955.4
2022-12-11T03:00:08.935Z,953.3
2022-12-11T03:01:52.317Z,949.7
2022-12-11T03:03:36.021Z,950.1
2022-12-11T03:05:19.505Z,948.7
2022-12-11T03:07:02.821Z,947.4
2022-12-11T03:08:46.213Z,947.6
2022-12-11T03:10:29.627Z,944.5
2022-12-11T03:12:13.014Z,944.5
2022-12-11T03:13:56.416Z,944.7
2022-12-11T03:15:39.802Z,946.2
2022-12-11T03:17:23.250Z,943.6
2022-12-11T03:20:49.665Z,942.3
2022-12-11T03:22:33.071Z,943.8
2022-12-11T03:24:16.521Z,945.1
2022-12-11T03:25:59.866Z,943.4
2022-12-11T03:27:43.259Z,943.2
2022-12-11T03:29:26.650Z,944.4
2022-12-11T03:31:10.070Z,944.7
2022-12-11T03:32:53.485Z,946.1
2022-12-11T03:34:36.869Z,945.3
2022-12-11T03:36:20.534Z,944.3
2022-12-11T03:38:03.940Z,942.8
2022-12-11T03:39:47.338Z,940.1
2022-12-11T03:41:30.721Z,939.3
2022-12-11T03:43:14.127Z,941.6
2022-12-11T03:44:57.514Z,939.4
2022-12-11T03:46:40.931Z,938.4
2022-12-11T03:48:24.327Z,937.5
2022-12-11T03:50:07.707Z,936
2022-12-11T03:51:51.424Z,933.8
2022-12-11T03:53:34.803Z,932.5
2022-12-11T03:55:18.196Z,931.4
2022-12-11T03:57:01.591Z,931.7
2022-12-11T03:58:45.005Z,930.3
2022-12-11T04:00:28.409Z,929.4
2022-12-11T04:02:11.880Z,928.2
2022-12-11T04:03:55.178Z,927.3
2022-12-11T04:09:04.435Z,924
2022-12-11T04:10:47.821Z,922.4
2022-12-11T04:12:31.231Z,923.5
2022-12-11T04:14:14.649Z,922.4
2022-12-11T04:15:58.007Z,921.5
2022-12-11T04:17:41.390Z,923.7
2022-12-11T04:19:24.809Z,922.7
2022-12-11T04:21:08.198Z,918.4
2022-12-11T04:26:17.449Z,916.9
2022-12-11T04:28:00.843Z,917
2022-12-11T04:29:44.233Z,918.6
2022-12-11T04:31:27.633Z,918
2022-12-11T04:33:11.028Z,915
2022-12-11T04:34:54.433Z,912.8
2022-12-11T04:36:37.811Z,913.8
2022-12-11T04:38:21.221Z,916.4
2022-12-11T04:40:04.615Z,918.5
2022-12-11T04:41:48.327Z,915.5
2022-12-11T04:43:31.709Z,911.1
2022-12-11T04:45:15.120Z,909
2022-12-11T04:46:58.501Z,907
2022-12-11T04:48:41.896Z,907.2
2022-12-11T04:50:25.300Z,907.3
2022-12-11T04:52:08.695Z,906
2022-12-11T04:53:52.084Z,910
2022-12-11T04:55:35.473Z,911.3
2022-12-11T04:57:19.193Z,911.1
2022-12-11T04:59:02.574Z,913.4
2022-12-11T05:00:45.975Z,913
2022-12-11T05:02:29.391Z,911.7
2022-12-11T05:04:12.759Z,907.6
2022-12-11T05:05:56.175Z,903.8
2022-12-11T05:07:39.564Z,902.8
2022-12-11T05:09:22.968Z,903.3
2022-12-11T05:11:06.363Z,903.3
2022-12-11T05:14:32.831Z,904.5
2022-12-11T05:16:16.214Z,905.5
2022-12-11T05:17:59.608Z,903.6
2022-12-11T05:19:43.015Z,899.8
2022-12-11T05:21:26.402Z,897.1
2022-12-11T05:23:09.812Z,897.5
2022-12-11T05:24:53.225Z,899.3
2022-12-11T05:26:36.599Z,902.2
2022-12-11T05:31:45.843Z,901.2
2022-12-11T05:33:29.228Z,899.7
2022-12-11T05:35:12.628Z,896.3
2022-12-11T05:36:56.033Z,897.2
2022-12-11T05:38:39.434Z,898.6
2022-12-11T05:40:22.828Z,898.1
2022-12-11T05:42:06.217Z,896
2022-12-11T05:43:49.605Z,890.8
2022-12-11T05:48:58.859Z,893.1
2022-12-11T05:50:42.249Z,889.2
2022-12-11T05:52:25.636Z,888.7
2022-12-11T05:54:09.082Z,891.3
2022-12-11T05:55:52.441Z,895.6
2022-12-11T05:57:35.850Z,898.7
2022-12-11T05:59:19.241Z,900.3
2022-12-11T06:01:02.629Z,903
2022-12-11T06:04:29.091Z,894.4
2022-12-11T06:06:12.486Z,892.5
2022-12-11T06:07:55.898Z,893.3
2022-12-11T06:09:39.364Z,892.7
2022-12-11T06:11:22.750Z,891.2
2022-12-11T06:13:06.084Z,894.6
2022-12-11T06:14:49.471Z,895.8
2022-12-11T06:16:32.874Z,894.3
2022-12-11T06:21:42.229Z,894.9
2022-12-11T06:23:25.512Z,898.1
2022-12-11T06:25:08.918Z,894.5
2022-12-11T06:26:52.371Z,893.8
2022-12-11T06:28:35.693Z,892
2022-12-11T06:30:19.094Z,891.4
2022-12-11T06:32:02.479Z,890.6
2022-12-11T06:33:45.875Z,891.2
2022-12-11T06:35:29.296Z,892
2022-12-11T06:37:12.992Z,892.7
2022-12-11T06:38:56.390Z,893.2
2022-12-11T06:40:39.785Z,892.7
2022-12-11T06:42:23.167Z,889.3
2022-12-11T06:44:06.583Z,884.5
2022-12-11T06:45:49.964Z,884
2022-12-11T06:47:33.363Z,883.6
2022-12-11T06:49:16.759Z,881.3
2022-12-11T06:54:26.011Z,877.9
2022-12-11T06:56:09.404Z,872.8
2022-12-11T06:57:52.803Z,869.2
2022-12-11T06:59:36.208Z,869.4
2022-12-11T07:01:19.609Z,871.7
2022-12-11T07:03:03.050Z,872.6
2022-12-11T07:04:46.378Z,872.6
2022-12-11T07:06:29.764Z,870.7
2022-12-11T07:08:13.188Z,869.5
2022-12-11T07:09:56.960Z,869.8
2022-12-11T07:11:40.390Z,873.6
2022-12-11T07:13:23.673Z,878.7
2022-12-11T07:15:07.104Z,883.7
2022-12-11T07:16:50.468Z,890.6
2022-12-11T07:18:33.849Z,895.6
2022-12-11T07:20:17.287Z,900
2022-12-11T07:22:00.658Z,895.7
2022-12-11T07:23:44.136Z,894.2
2022-12-11T07:25:27.739Z,889.7
2022-12-11T07:27:11.136Z,884
2022-12-11T07:28:54.597Z,878.3
2022-12-11T07:30:37.937Z,873
2022-12-11T07:32:21.332Z,866.8
2022-12-11T07:34:04.717Z,864.8
2022-12-11T07:35:48.112Z,869
2022-12-11T07:37:31.528Z,874.8
2022-12-11T07:39:15.009Z,880
2022-12-11T07:42:41.380Z,891.5
2022-12-11T07:44:24.785Z,895.2
2022-12-11T07:46:08.177Z,888.2
2022-12-11T07:47:51.574Z,882
2022-12-11T07:49:34.971Z,879.7
2022-12-11T07:51:18.387Z,876.7
2022-12-11T07:53:01.802Z,873.8
2022-12-11T07:54:45.171Z,872.7
2022-12-11T07:58:11.632Z,866.2
2022-12-11T07:59:55.079Z,864.3
2022-12-11T08:01:38.423Z,860.8
2022-12-11T08:03:21.828Z,855.1
2022-12-11T08:05:05.215Z,849.5
2022-12-11T08:06:48.627Z,844.7
2022-12-11T08:08:32.007Z,839.4
2022-12-11T08:10:15.419Z,833.8
2022-12-11T08:15:24.655Z,818
2022-12-11T08:17:08.045Z,815.2
2022-12-11T08:18:51.444Z,810.6
2022-12-11T08:20:34.970Z,804.6
2022-12-11T08:22:18.221Z,800.7
2022-12-11T08:24:01.680Z,802.5
2022-12-11T08:27:28.425Z,799.3
2022-12-11T08:30:54.890Z,795.8
2022-12-11T08:32:38.290Z,791.8
2022-12-11T08:34:21.896Z,787.7
2022-12-11T08:36:05.401Z,783.1
2022-12-11T08:37:48.485Z,780.8
2022-12-11T08:39:31.864Z,779.5
2022-12-11T08:41:15.265Z,777.3
2022-12-11T08:42:58.657Z,774.6
2022-12-11T08:48:07.906Z,773.4
2022-12-11T08:49:51.300Z,769.1
2022-12-11T08:51:34.696Z,768.4
2022-12-11T08:53:18.081Z,765.1
2022-12-11T08:55:01.481Z,761.5
2022-12-11T08:56:44.904Z,754
2022-12-11T08:58:28.284Z,586.1
2022-12-11T09:00:11.663Z,478.3
2022-12-11T09:05:20.929Z,471.6
2022-12-11T09:07:04.391Z,477.4
2022-12-11T09:08:47.689Z,485.5
2022-12-11T09:10:31.091Z,495.7
2022-12-11T09:12:14.479Z,507.1
2022-12-11T09:13:57.918Z,517.4
2022-12-11T09:15:41.295Z,522.2
2022-12-11T09:17:24.687Z,530.1
2022-12-11T09:22:33.927Z,542.8
2022-12-11T09:24:17.377Z,543.6
2022-12-11T09:26:00.734Z,547.1
2022-12-11T09:27:44.131Z,555.8
2022-12-11T09:29:27.598Z,560.1
2022-12-11T09:31:10.915Z,565.7
2022-12-11T09:32:54.319Z,572.1
2022-12-11T09:34:37.708Z,574.6
2022-12-11T09:36:21.113Z,575.3
2022-12-11T09:38:04.807Z,574.5
2022-12-11T09:39:48.191Z,574.6
2022-12-11T09:41:31.603Z,576.4
2022-12-11T09:43:15.042Z,578.4
2022-12-11T09:44:58.430Z,579.7
2022-12-11T09:46:41.776Z,614.1
2022-12-11T09:48:25.188Z,637.5
2022-12-11T09:50:08.632Z,637.7
2022-12-11T09:55:17.825Z,639
2022-12-11T09:57:01.218Z,642.7
2022-12-11T09:58:44.620Z,646
2022-12-11T10:00:28.016Z,646.1
2022-12-11T10:02:11.392Z,649.2
2022-12-11T10:03:54.815Z,685.7
2022-12-11T10:05:38.239Z,697.3
2022-12-11T10:07:21.582Z,705.7
2022-12-11T10:09:05.302Z,709.3
2022-12-11T10:10:48.695Z,709.1
2022-12-11T10:12:32.167Z,705
2022-12-11T10:14:15.489Z,704
2022-12-11T10:15:58.888Z,705.7
2022-12-11T10:17:42.287Z,704.6
2022-12-11T10:19:25.678Z,704.1
2022-12-11T10:21:09.062Z,704
2022-12-11T10:24:35.539Z,695.8
2022-12-11T10:26:18.944Z,696.2
2022-12-11T10:28:02.344Z,700.6
2022-12-11T10:29:45.737Z,709.6
2022-12-11T10:31:29.119Z,720.7
2022-12-11T10:33:12.530Z,725.3
2022-12-11T10:34:56.034Z,726.6
2022-12-11T10:36:39.317Z,732.4
2022-12-11T10:38:23.031Z,737.3
2022-12-11T10:40:06.425Z,744.8
2022-12-11T10:41:49.819Z,752.8
2022-12-11T10:43:33.219Z,764.8
2022-12-11T10:45:16.633Z,769.2
2022-12-11T10:47:00.003Z,768.1
2022-12-11T10:48:43.397Z,771.4
2022-12-11T10:53:52.638Z,784
2022-12-11T10:55:36.104Z,789.5
2022-12-11T10:57:19.434Z,793.1
2022-12-11T10:59:02.879Z,802
2022-12-11T11:00:46.246Z,812.8
2022-12-11T11:02:29.620Z,821.3
2022-12-11T11:04:13.028Z,822.1
2022-12-11T11:05:56.474Z,827.5
2022-12-11T11:07:40.117Z,830
2022-12-11T11:09:23.524Z,832.2
2022-12-11T11:11:06.903Z,834
2022-12-11T11:12:50.314Z,834.5
2022-12-11T11:14:33.696Z,833.5
2022-12-11T11:16:17.092Z,832.2
2022-12-11T11:18:00.495Z,833
2022-12-11T11:19:43.884Z,834.4
2022-12-11T11:23:10.362Z,829
2022-12-11T11:24:53.790Z,826
2022-12-11T11:26:37.154Z,824
2022-12-11T11:28:20.581Z,821.5
2022-12-11T11:30:03.978Z,826
2022-12-11T11:31:47.408Z,852.3
2022-12-11T11:33:30.778Z,872.5
2022-12-11T11:35:14.157Z,876.4
2022-12-11T11:36:57.852Z,876.8
2022-12-11T11:38:41.297Z,875.6
2022-12-11T11:40:24.693Z,875.1
2022-12-11T11:42:08.032Z,875.6
2022-12-11T11:43:51.505Z,875.8
2022-12-11T11:45:34.824Z,883.6
2022-12-11T11:47:18.258Z,894.2
2022-12-11T11:49:01.624Z,904.5
2022-12-11T11:52:28.103Z,900.2
2022-12-11T11:54:11.495Z,946.1
2022-12-11T11:55:54.881Z,947.4
2022-12-11T11:57:38.297Z,941
2022-12-11T11:59:21.681Z,944.2
2022-12-11T12:01:05.109Z,955.8
2022-12-11T12:02:48.462Z,956.2
2022-12-11T12:04:31.891Z,960.7
2022-12-11T12:07:58.354Z,962.4
2022-12-11T12:09:41.741Z,966
2022-12-11T12:11:25.136Z,970.2
2022-12-11T12:13:08.525Z,970.6
2022-12-11T12:14:51.927Z,967.7
2022-12-11T12:16:35.326Z,963.6
2022-12-11T12:18:18.722Z,971.4
2022-12-11T12:20:02.129Z,976
2022-12-11T12:21:45.812Z,977.9
2022-12-11T12:23:29.207Z,981
2022-12-11T12:25:12.591Z,982.1
2022-12-11T12:26:56.014Z,979.6
2022-12-11T12:28:39.400Z,979.2
2022-12-11T12:30:22.797Z,977.3
2022-12-11T12:32:06.197Z,973.7
2022-12-11T12:33:49.597Z,971.2
2022-12-11T12:37:16.060Z,966.9
2022-12-11T12:38:59.453Z,966
2022-12-11T12:40:42.867Z,965.1
2022-12-11T12:42:26.236Z,962.7
2022-12-11T12:44:09.644Z,960.5
2022-12-11T12:45:53.048Z,958.6
2022-12-11T12:47:36.441Z,959.3
2022-12-11T12:49:19.831Z,954.4
2022-12-11T12:51:03.576Z,950.3
2022-12-11T12:52:46.935Z,945.3
2022-12-11T12:54:30.317Z,941.3
2022-12-11T12:56:13.729Z,933.8
2022-12-11T12:57:57.114Z,931.8
2022-12-11T12:59:40.532Z,930.8
2022-12-11T13:01:23.913Z,928.6
2022-12-11T13:03:07.311Z,927.2
2022-12-11T13:04:51.035Z,922.7
2022-12-11T13:06:34.415Z,922.4
2022-12-11T13:08:17.794Z,921.1
2022-12-11T13:10:01.208Z,917.3
2022-12-11T13:11:44.649Z,915.1
2022-12-11T13:13:27.986Z,911.5
2022-12-11T13:15:11.457Z,907.6
2022-12-11T13:16:54.783Z,905.2
2022-12-11T13:20:21.250Z,905.9
2022-12-11T13:22:04.689Z,906
2022-12-11T13:23:48.055Z,907.6
2022-12-11T13:25:31.433Z,910.6
2022-12-11T13:27:14.906Z,912.1
2022-12-11T13:28:58.236Z,908.1
2022-12-11T13:30:41.760Z,906
2022-12-11T13:32:25.087Z,901.6
2022-12-11T13:35:51.501Z,894.5
2022-12-11T13:37:34.973Z,888.4
2022-12-11T13:39:18.284Z,885
2022-12-11T13:41:01.697Z,882.6
2022-12-11T13:42:45.103Z,881.4
2022-12-11T13:44:28.486Z,879.7
2022-12-11T13:46:11.871Z,876.7
2022-12-11T13:47:55.270Z,874.1
2022-12-11T13:51:21.749Z,871.8
2022-12-11T13:53:05.176Z,873.6
2022-12-11T13:54:48.557Z,873.4
2022-12-11T13:56:31.961Z,871.6
2022-12-11T13:58:15.323Z,870.8
2022-12-11T13:59:58.797Z,869.1
2022-12-11T14:01:42.117Z,866.6
2022-12-11T14:03:25.504Z,868.6
2022-12-11T14:08:34.767Z,883.6
2022-12-11T14:10:18.146Z,884
2022-12-11T14:12:01.562Z,912.8
2022-12-11T14:13:44.929Z,924.6
2022-12-11T14:15:28.331Z,921.4
2022-12-11T14:17:11.733Z,921.1
2022-12-11T14:18:55.180Z,918.2
2022-12-11T14:20:38.634Z,918.1
2022-12-11T14:24:05.047Z,926.4
2022-12-11T14:25:48.392Z,932
2022-12-11T14:27:31.788Z,936.6
2022-12-11T14:29:15.176Z,936.2
2022-12-11T14:30:58.571Z,934.5
2022-12-11T14:32:41.986Z,936.1
2022-12-11T14:34:25.363Z,936.7
2022-12-11T14:36:08.770Z,935.1
2022-12-11T14:41:18.010Z,923.2
2022-12-11T14:43:01.435Z,924.7
2022-12-11T14:44:44.798Z,924.7
2022-12-11T14:46:28.211Z,929.5
2022-12-11T14:48:11.606Z,934
2022-12-11T14:49:55.070Z,936.2
2022-12-11T14:51:38.398Z,936
2022-12-11T14:53:21.776Z,936.1
2022-12-11T14:56:48.245Z,936.6
2022-12-11T14:58:31.648Z,934.7
2022-12-11T15:00:15.099Z,934.8
2022-12-11T15:01:58.440Z,936
2022-12-11T15:03:41.838Z,937.2
2022-12-11T15:05:25.225Z,936.7
2022-12-11T15:07:08.631Z,933.3
2022-12-11T15:08:52.024Z,932.3
2022-12-11T15:12:18.660Z,931.5
2022-12-11T15:14:01.892Z,931.7
2022-12-11T15:15:45.293Z,938.7
2022-12-11T15:17:28.694Z,944
2022-12-11T15:19:12.077Z,947.4
2022-12-11T15:20:55.491Z,979.5
2022-12-11T15:22:38.873Z,1013.3
2022-12-11T15:24:22.277Z,1002.2
2022-12-11T15:27:48.748Z,1088
2022-12-11T15:29:32.132Z,1046.5
2022-12-11T15:31:15.540Z,999
2022-12-11T15:32:58.926Z,1005.1
2022-12-11T15:34:42.603Z,994
2022-12-11T15:36:25.740Z,990.6
2022-12-11T15:38:09.130Z,987.3
2022-12-11T15:39:52.560Z,985.6
2022-12-11T15:43:18.980Z,977.6
2022-12-11T15:45:02.378Z,970.2
2022-12-11T15:46:45.777Z,958.8
2022-12-11T15:48:29.172Z,942
2022-12-11T15:50:12.582Z,937.8
2022-12-11T15:51:55.969Z,941.3
2022-12-11T15:53:39.367Z,938
2022-12-11T15:55:22.761Z,941.4
2022-12-11T15:58:49.225Z,932.6
2022-12-11T16:00:32.629Z,932
2022-12-11T16:02:16.021Z,932.6
2022-12-11T16:03:59.421Z,934.3
2022-12-11T16:05:42.836Z,937.2
2022-12-11T16:07:26.208Z,941.6
2022-12-11T16:09:09.599Z,940.7
2022-12-11T16:10:53.051Z,944
2022-12-11T16:14:19.487Z,947.7
2022-12-11T16:16:02.877Z,945.6
2022-12-11T16:17:46.274Z,941.4
2022-12-11T16:19:29.669Z,934.8
2022-12-11T16:21:13.070Z,933.2
2022-12-11T16:22:56.458Z,931.1
2022-12-11T16:24:39.842Z,925.5
2022-12-11T16:26:23.288Z,924.1
2022-12-11T16:29:49.716Z,924.8
2022-12-11T16:31:33.202Z,923.8
2022-12-11T16:33:16.524Z,923.6
2022-12-11T16:34:59.889Z,926.4
2022-12-11T16:36:43.395Z,931.1
2022-12-11T16:38:26.695Z,935
2022-12-11T16:40:10.559Z,938
2022-12-11T16:41:53.555Z,941.1
2022-12-11T16:47:02.741Z,946.7
2022-12-11T16:48:46.122Z,945.7
2022-12-11T16:50:29.536Z,947.2
2022-12-11T16:52:12.977Z,944
2022-12-11T16:53:56.800Z,940.6
2022-12-11T16:55:39.900Z,937.2
2022-12-11T16:57:23.113Z,935.6
2022-12-11T16:59:06.509Z,936.6
2022-12-11T17:02:32.982Z,931.5
2022-12-11T17:04:16.417Z,930
2022-12-11T17:05:59.771Z,927.2
2022-12-11T17:07:43.155Z,927.1
2022-12-11T17:09:26.598Z,927.4
2022-12-11T17:11:10.009Z,927
2022-12-11T17:12:53.378Z,927.3
2022-12-11T17:14:36.787Z,929.1
2022-12-11T17:18:03.231Z,927.5
2022-12-11T17:19:46.620Z,926.6
2022-12-11T17:21:30.013Z,927.2
2022-12-11T17:23:13.405Z,929.4
2022-12-11T17:26:40.319Z,930.5
2022-12-11T17:28:23.595Z,926.1
2022-12-11T17:30:06.990Z,922
2022-12-11T17:35:16.317Z,925.5
2022-12-11T17:36:59.642Z,925.5
2022-12-11T17:38:43.017Z,927.3
2022-12-11T17:40:26.425Z,929.1
2022-12-11T17:42:09.818Z,929.7
2022-12-11T17:43:53.212Z,929.2
2022-12-11T17:45:36.615Z,930.7
2022-12-11T17:47:20.003Z,934.5
2022-12-11T17:52:29.243Z,946.8
2022-12-11T17:54:12.638Z,961.5
2022-12-11T17:55:56.054Z,964
2022-12-11T17:57:39.435Z,958.7
2022-12-11T17:59:22.838Z,955.8
2022-12-11T18:01:06.266Z,957.2
2022-12-11T18:02:50.152Z,962.1
2022-12-11T18:04:40.888Z,964.8
2022-12-11T18:07:59.519Z,982.7
2022-12-11T18:09:42.904Z,986.3
2022-12-11T18:11:26.336Z,986.3
2022-12-11T18:13:09.794Z,988.1
2022-12-11T18:14:53.080Z,987.3
2022-12-11T18:16:36.480Z,986.6
2022-12-11T18:20:03.285Z,986.5
2022-12-11T18:25:12.507Z,996
2022-12-11T18:26:55.919Z,998.3
2022-12-11T18:28:39.304Z,997.5
2022-12-11T18:30:22.708Z,998.3
2022-12-11T18:32:06.142Z,998.3
2022-12-11T18:33:49.539Z,996.6
2022-12-11T18:35:32.897Z,995.5
2022-12-11T18:37:16.293Z,990.6
2022-12-11T18:42:25.625Z,985.2
2022-12-11T18:44:08.907Z,981.8
2022-12-11T18:45:52.361Z,981.3
2022-12-11T18:47:35.712Z,981.1
2022-12-11T18:49:19.098Z,981.5
2022-12-11T18:51:02.501Z,980.8
2022-12-11T18:52:45.881Z,979.4
2022-12-11T18:54:29.371Z,978
2022-12-11T18:57:55.768Z,977.6
2022-12-11T18:59:39.171Z,976.7
2022-12-11T19:01:22.552Z,977.3
2022-12-11T19:03:06.085Z,973.8
2022-12-11T19:04:49.346Z,974.4
2022-12-11T19:06:32.774Z,972.8
2022-12-11T19:08:16.186Z,975
2022-12-11T19:09:59.545Z,972.2
2022-12-11T19:13:26.104Z,968.2
2022-12-11T19:15:09.417Z,967.5
2022-12-11T19:16:52.967Z,964.3
2022-12-11T19:18:36.229Z,963.4
2022-12-11T19:20:19.619Z,962.1
2022-12-11T19:22:03.135Z,960.3
2022-12-11T19:25:29.777Z,955.2
2022-12-11T19:28:56.300Z,955.2
2022-12-11T19:30:39.645Z,952.4
2022-12-11T19:32:23.064Z,953.4
2022-12-11T19:34:06.442Z,954.8
2022-12-11T19:35:49.848Z,955
2022-12-11T19:37:33.234Z,953.5
2022-12-11T19:39:16.622Z,947.7
2022-12-11T19:41:00.027Z,947.2
2022-12-11T19:42:43.743Z,947.7
2022-12-11T19:44:27.231Z,947.4
2022-12-11T19:46:10.537Z,943.1
2022-12-11T19:47:53.940Z,941.8
2022-12-11T19:49:37.328Z,940.3
2022-12-11T19:51:20.701Z,940.7
2022-12-11T19:53:04.176Z,939.5
2022-12-11T19:54:47.497Z,936
2022-12-11T19:58:13.969Z,934.4
2022-12-11T19:59:57.389Z,931.4
2022-12-11T20:01:40.760Z,929.1
2022-12-11T20:03:24.176Z,927.7
2022-12-11T20:05:07.645Z,926.3
2022-12-11T20:06:50.950Z,925.1
2022-12-11T20:08:34.348Z,926.4
2022-12-11T20:10:17.775Z,925.6
2022-12-11T20:13:44.404Z,922.4
2022-12-11T20:15:27.647Z,923.3
2022-12-11T20:17:11.132Z,924.5
2022-12-11T20:18:54.411Z,926
2022-12-11T20:20:37.797Z,923.2
2022-12-11T20:22:21.200Z,925.3
2022-12-11T20:24:04.598Z,925
2022-12-11T20:25:47.984Z,924.7
2022-12-11T20:29:14.517Z,923
2022-12-11T20:30:57.861Z,922.5
2022-12-11T20:32:41.254Z,925.4
2022-12-11T20:34:24.757Z,927.6
2022-12-11T20:36:08.052Z,930
2022-12-11T20:37:51.445Z,930.6
2022-12-11T20:39:34.924Z,931
2022-12-11T20:41:18.254Z,931.5
2022-12-11T20:44:44.709Z,931.2
2022-12-11T20:46:28.099Z,930.5
2022-12-11T20:48:11.629Z,933.6
2022-12-11T20:49:54.949Z,933.1
2022-12-11T20:51:38.286Z,932
2022-12-11T20:53:21.747Z,936.2
2022-12-11T20:55:05.087Z,938.7
2022-12-11T21:00:14.332Z,945.8
2022-12-11T21:01:57.735Z,950.5
2022-12-11T21:03:41.130Z,953.2
2022-12-11T21:05:24.578Z,955.7
2022-12-11T21:07:07.914Z,960.2
2022-12-11T21:08:51.365Z,960.5
2022-12-11T21:10:34.707Z,962.5
2022-12-11T21:15:43.949Z,976.4
2022-12-11T21:17:27.384Z,978.6
2022-12-11T21:19:10.736Z,980.6
2022-12-11T21:20:54.140Z,984
2022-12-11T21:22:37.536Z,985.4
2022-12-11T21:24:20.950Z,984.7
2022-12-11T21:31:13.631Z,988
2022-12-11T21:32:56.957Z,990.4
2022-12-11T21:34:40.373Z,991.2
2022-12-11T21:36:23.765Z,992.4
2022-12-11T21:38:07.144Z,995.1
2022-12-11T21:39:50.570Z,998.2
2022-12-11T21:41:33.968Z,998.1
2022-12-11T21:43:17.340Z,996.2
2022-12-11T21:45:01.058Z,992.5
2022-12-11T21:46:44.436Z,995.1
2022-12-11T21:48:27.831Z,1001.3
2022-12-11T21:50:11.278Z,1008
2022-12-11T21:51:54.618Z,1012.1
2022-12-11T21:53:38.032Z,1015
2022-12-11T21:55:21.429Z,1017
2022-12-11T21:57:04.908Z,1016.7
2022-12-11T22:00:31.390Z,1012.7
2022-12-11T22:02:14.701Z,1010.1
2022-12-11T22:03:58.325Z,1009
2022-12-11T22:05:41.598Z,1006.3
2022-12-11T22:07:24.866Z,1003.5
2022-12-11T22:09:08.269Z,1000.6
2022-12-11T22:10:51.832Z,998.5
2022-12-11T22:12:35.096Z,997
2022-12-11T22:16:01.540Z,994.4
2022-12-11T22:17:44.924Z,993
2022-12-11T22:19:28.358Z,993.3
2022-12-11T22:21:11.855Z,993.6
2022-12-11T22:22:55.231Z,989.1
2022-12-11T22:24:38.510Z,987
2022-12-11T22:26:21.911Z,985.1
2022-12-11T22:28:05.293Z,983.6
2022-12-11T22:31:31.765Z,976.6
2022-12-11T22:33:15.168Z,972.8
2022-12-11T22:34:58.594Z,971.8
2022-12-11T22:36:41.952Z,970.8
2022-12-11T22:38:25.355Z,967.7
2022-12-11T22:40:08.898Z,969.8
2022-12-11T22:41:52.179Z,976.1
2022-12-11T22:43:35.579Z,980.4
2022-12-11T22:45:19.380Z,988.4
2022-12-11T22:47:02.646Z,992.5
2022-12-11T22:48:46.080Z,993.7
2022-12-11T22:50:29.432Z,996.8
2022-12-11T22:52:12.837Z,1001.5
2022-12-11T22:53:56.232Z,1007.8
2022-12-11T22:55:39.620Z,1009.5
2022-12-11T22:57:23.011Z,1011.7
2022-12-11T23:02:32.275Z,1012.7
2022-12-11T23:04:15.670Z,1015.4
2022-12-11T23:05:59.056Z,1013.3
2022-12-11T23:07:42.493Z,1011.2
2022-12-11T23:09:25.906Z,1010.1
2022-12-11T23:11:09.238Z,1009.7
2022-12-11T23:12:52.695Z,1006.2
2022-12-11T23:14:36.166Z,1005
2022-12-11T23:18:02.545Z,1007.4
2022-12-11T23:19:45.907Z,1008.8
2022-12-11T23:21:29.307Z,1008
2022-12-11T23:23:12.708Z,1004.6
2022-12-11T23:24:56.177Z,1002.8
2022-12-11T23:26:39.496Z,1002.8
2022-12-11T23:28:22.878Z,1004.2
2022-12-11T23:30:06.295Z,1002.4
2022-12-11T23:33:32.771Z,996.5
2022-12-11T23:35:16.166Z,995.2
2022-12-11T23:36:59.623Z,996
2022-12-11T23:38:42.935Z,994.8
2022-12-11T23:40:26.375Z,990
2022-12-11T23:42:09.765Z,986.5
2022-12-11T23:43:53.145Z,984.2
2022-12-11T23:45:36.584Z,984.5
2022-12-11T23:49:03.000Z,988.1
2022-12-11T23:50:46.393Z,986.1
2022-12-11T23:52:29.791Z,984
2022-12-11T23:54:13.221Z,983.7
2022-12-11T23:55:56.588Z,981.8
2022-12-11T23:57:39.985Z,979.5
2022-12-11T23:59:23.383Z,979.7
